Weather at Graz Airport

Public forecast

Using degrees Celsius for public forecast. Weather courtesy of forecast.io.

Current aviation weather report (METAR) for Graz Airport

Report is more than 6 hours old.

Retrieved 2022/09/17 18:50 UTC (8 days ago):

LOWG 171850Z AUTO 34004KT 300V360 9999 FEW035 11/03 Q1009 NOSIG

Aviation forecast (TAF) for Graz Airport

Forecast is more than 12 hours old.

Retrieved 2022/09/17 18:21 UTC (8 days ago):

TAF TAF LOWG 171715Z 1718/1818 VRB04KT 9999 FEW050 TX16/1814Z TN06/1804Z PROB30 TEMPO 1800/1806 0400 BCFG SCT003 TEMPO 1810/1817 15008KT